Time;durP1;ratioP1;P1;durP2;ratioP2;P2;SDS_P1;SDS_P2;PMS_P1;PMS_P2;Temp;Humidity;BMP_temperature;BMP_pressure;BME280_temperature;BME280_humidity;BME280_pressure;Samples;Min_cycle;Max_cycle;Signal;HPM_P1;HPM_P2
2023/05/16 00:00:34;;;;;;;18.73;4.28;;;;;;;9.17;92.93;101815.22;5029830;28;20096;-75
2023/05/16 00:03:03;;;;;;;20.25;4.63;;;;;;;9.18;92.96;101816.91;5031650;28;20029;-75
2023/05/16 00:05:28;;;;;;;24.10;4.85;;;;;;;9.11;92.83;101826.06;5030029;28;20033;-75
2023/05/16 00:07:54;;;;;;;26.27;5.00;;;;;;;9.09;93.04;101817.41;5031431;28;20026;-75
2023/05/16 00:10:23;;;;;;;21.50;4.72;;;;;;;9.04;92.68;101822.06;5028634;28;20037;-75
2023/05/16 00:12:55;;;;;;;23.02;4.88;;;;;;;8.99;92.83;101829.31;5024562;28;20390;-75
2023/05/16 00:15:22;;;;;;;19.08;4.15;;;;;;;8.99;92.65;101824.06;5030913;28;20025;-76
2023/05/16 00:17:48;;;;;;;18.15;4.25;;;;;;;8.91;93.02;101815.75;5030934;28;20041;-75
2023/05/16 00:20:16;;;;;;;22.95;4.50;;;;;;;8.90;93.75;101829.81;5029554;28;20014;-75
2023/05/16 00:22:42;;;;;;;20.58;4.10;;;;;;;8.88;93.40;101834.28;5029962;28;20374;-75
2023/05/16 00:25:08;;;;;;;19.67;4.18;;;;;;;8.81;92.93;101838.16;5029459;28;20028;-76
2023/05/16 00:27:37;;;;;;;21.40;4.30;;;;;;;8.74;93.40;101833.19;5011745;28;20600;-75
2023/05/16 00:30:03;;;;;;;18.90;4.03;;;;;;;8.72;93.56;101839.44;4994270;28;20023;-75
2023/05/16 00:32:28;;;;;;;20.55;4.60;;;;;;;8.68;93.41;101844.00;5027637;28;20390;-75
2023/05/16 00:35:06;;;;;;;17.77;4.03;;;;;;;8.60;93.69;101838.28;5028352;28;20057;-76
2023/05/16 00:37:32;;;;;;;19.38;4.60;;;;;;;8.57;94.06;101835.81;5025738;28;20068;-76
2023/05/16 00:39:57;;;;;;;22.27;5.07;;;;;;;8.58;94.76;101829.66;5012726;28;20063;-75
2023/05/16 00:42:22;;;;;;;15.73;3.50;;;;;;;8.55;93.98;101832.41;5030152;28;20028;-75
2023/05/16 00:44:50;;;;;;;17.08;4.15;;;;;;;8.47;93.74;101835.44;5029316;28;20044;-76
2023/05/16 00:47:17;;;;;;;19.08;4.45;;;;;;;8.44;94.99;101832.97;5029541;28;20059;-76
2023/05/16 00:49:43;;;;;;;18.30;3.95;;;;;;;8.39;94.62;101826.22;5028967;28;20037;-75
2023/05/16 00:52:08;;;;;;;20.60;4.63;;;;;;;8.32;94.23;101830.03;5029632;28;20442;-75
2023/05/16 00:54:34;;;;;;;20.45;4.65;;;;;;;8.30;94.34;101821.41;5027180;28;20053;-75
2023/05/16 00:57:03;;;;;;;17.50;3.75;;;;;;;8.23;94.13;101830.50;5010049;28;20160;-75
2023/05/16 00:59:28;;;;;;;25.10;4.47;;;;;;;8.17;94.66;101832.47;5010726;28;20120;-75
2023/05/16 01:01:55;;;;;;;17.20;4.10;;;;;;;8.15;95.05;101828.25;5009115;28;20521;-75
2023/05/16 01:04:21;;;;;;;21.27;4.43;;;;;;;8.14;94.89;101837.03;5004880;28;20041;-76
2023/05/16 01:06:48;;;;;;;16.13;3.83;;;;;;;8.06;94.62;101834.78;5005915;28;20394;-76
2023/05/16 01:09:14;;;;;;;21.92;4.47;;;;;;;8.03;94.55;101840.16;5010042;28;20064;-76
2023/05/16 01:12:06;;;;;;;14.23;3.85;;;;;;;7.99;94.90;101843.81;5009680;28;20485;-76
2023/05/16 01:14:48;;;;;;;19.23;4.15;;;;;;;7.98;95.00;101842.13;5011175;28;20030;-75
2023/05/16 01:17:20;;;;;;;19.98;4.20;;;;;;;7.97;95.57;101848.28;4990042;28;20075;-75
2023/05/16 01:19:54;;;;;;;15.27;3.90;;;;;;;7.89;94.80;101842.56;5010773;28;20029;-76
2023/05/16 01:22:46;;;;;;;19.15;4.10;;;;;;;7.93;95.80;101843.28;4992117;28;20599;-75
2023/05/16 01:25:33;;;;;;;19.48;4.22;;;;;;;7.81;94.55;101849.94;5011195;28;20446;-76
2023/05/16 01:28:00;;;;;;;19.10;3.78;;;;;;;7.82;95.15;101842.00;5010174;28;20026;-75
2023/05/16 01:30:25;;;;;;;17.90;3.50;;;;;;;7.75;95.03;101845.00;4991721;28;20394;-75
2023/05/16 01:32:51;;;;;;;16.15;3.88;;;;;;;7.72;94.49;101839.91;5007588;28;20047;-75
2023/05/16 01:35:17;;;;;;;20.88;4.03;;;;;;;7.70;94.90;101845.19;4989179;28;20109;-74
2023/05/16 01:38:05;;;;;;;19.25;4.35;;;;;;;7.69;95.54;101845.28;5008599;28;20101;-74
2023/05/16 01:40:52;;;;;;;19.80;3.97;;;;;;;7.63;95.40;101848.19;5008642;28;20030;-75
2023/05/16 01:43:28;;;;;;;17.77;3.45;;;;;;;7.62;95.52;101849.09;5006873;28;20072;-75
2023/05/16 01:46:03;;;;;;;15.77;3.28;;;;;;;7.55;95.46;101851.97;4993705;28;20029;-75
2023/05/16 01:48:39;;;;;;;20.42;3.90;;;;;;;7.49;95.89;101849.63;5009589;28;20040;-75
2023/05/16 01:51:05;;;;;;;18.60;3.90;;;;;;;7.48;95.61;101852.31;5008416;28;20030;-74
2023/05/16 01:53:38;;;;;;;15.43;3.75;;;;;;;7.48;95.80;101857.56;5009104;28;20048;-75
2023/05/16 01:56:07;;;;;;;19.83;3.90;;;;;;;7.42;95.90;101857.84;5006527;28;20070;-75
2023/05/16 01:58:35;;;;;;;19.60;4.00;;;;;;;7.40;96.20;101860.53;5008714;28;20379;-75
2023/05/16 02:01:02;;;;;;;18.85;4.07;;;;;;;7.36;96.24;101864.19;5008063;28;20032;-75
2023/05/16 02:03:29;;;;;;;19.45;3.75;;;;;;;7.37;97.15;101865.91;4991976;28;20033;-75
2023/05/16 02:05:55;;;;;;;17.52;3.40;;;;;;;7.33;96.55;101864.34;5009097;28;20022;-75
2023/05/16 02:08:21;;;;;;;18.77;4.05;;;;;;;7.29;96.41;101867.16;5013188;28;20072;-74
2023/05/16 02:10:46;;;;;;;18.67;4.20;;;;;;;7.26;96.47;101873.38;5012045;28;20084;-74
2023/05/16 02:13:11;;;;;;;18.02;3.45;;;;;;;7.22;96.58;101882.28;5011065;28;20479;-75
2023/05/16 02:15:38;;;;;;;16.52;3.60;;;;;;;7.16;96.69;101872.06;5012612;28;20034;-75
2023/05/16 02:18:03;;;;;;;14.98;4.20;;;;;;;7.13;97.15;101872.19;5012480;28;20026;-75
2023/05/16 02:20:35;;;;;;;26.42;4.05;;;;;;;7.11;97.38;101871.41;5013268;28;20045;-75
2023/05/16 02:23:02;;;;;;;16.45;3.80;;;;;;;7.07;97.67;101873.31;4994945;28;20387;-75
2023/05/16 02:25:57;;;;;;;19.33;4.22;;;;;;;7.09;97.76;101874.09;5011126;28;20018;-76
2023/05/16 02:28:29;;;;;;;21.30;4.03;;;;;;;7.00;98.06;101879.72;5011621;28;20398;-75
2023/05/16 02:30:58;;;;;;;;;;;;;;;7.13;96.73;101877.41;5006396;28;20030;-75
2023/05/16 02:33:28;;;;;;;20.80;4.15;;;;;;;6.98;97.85;101880.72;4995026;28;19913;-75
2023/05/16 02:35:54;;;;;;;21.23;4.15;;;;;;;6.94;98.00;101884.38;5011909;28;20076;-77
2023/05/16 02:38:20;;;;;;;19.35;4.75;;;;;;;6.87;98.62;101879.41;5011991;28;20353;-77
2023/05/16 02:40:49;;;;;;;22.50;4.07;;;;;;;6.84;98.69;101882.16;5012961;28;20109;-77
2023/05/16 02:43:15;;;;;;;22.35;4.22;;;;;;;6.89;98.97;101882.81;5013358;28;20041;-76
2023/05/16 02:45:40;;;;;;;19.40;3.60;;;;;;;6.83;99.15;101890.91;4995906;28;20025;-75
2023/05/16 02:48:06;;;;;;;18.75;3.88;;;;;;;6.81;98.98;101895.34;4994131;28;20367;-75
2023/05/16 02:50:39;;;;;;;17.13;3.90;;;;;;;6.81;99.46;101892.75;4996862;28;20022;-75
2023/05/16 02:53:04;;;;;;;16.83;3.88;;;;;;;6.75;99.37;101900.81;5011544;28;20030;-75
2023/05/16 02:55:43;;;;;;;21.73;3.97;;;;;;;6.77;99.73;101900.75;5017459;28;20095;-77
2023/05/16 02:58:18;;;;;;;20.73;4.47;;;;;;;6.71;99.45;101903.63;5019246;28;20370;-76
2023/05/16 03:00:46;;;;;;;24.58;4.53;;;;;;;6.70;99.59;101909.75;5018825;28;20543;-76
2023/05/16 03:03:11;;;;;;;16.13;3.70;;;;;;;6.70;99.64;101909.75;5031707;28;20021;-77
2023/05/16 03:05:37;;;;;;;18.38;3.65;;;;;;;6.63;99.59;101914.41;5028450;28;20048;-77
2023/05/16 03:08:06;;;;;;;15.52;3.58;;;;;;;6.65;100.00;101917.78;5019414;28;20042;-77
2023/05/16 03:10:31;;;;;;;16.10;3.45;;;;;;;6.60;99.95;101919.75;5012387;28;20026;-77
2023/05/16 03:13:03;;;;;;;17.77;4.40;;;;;;;6.60;100.00;101925.84;5011658;28;20057;-77
2023/05/16 03:18:28;;;;;;;19.60;4.10;;;;;;;6.49;100.00;101927.19;5020907;28;20501;-77
2023/05/16 03:21:07;;;;;;;18.48;3.97;;;;;;;6.50;100.00;101931.50;5014265;28;20036;-74
2023/05/16 03:23:54;;;;;;;19.05;3.60;;;;;;;6.48;100.00;101930.72;5013346;28;20478;-77
2023/05/16 03:26:21;;;;;;;25.40;4.28;;;;;;;6.45;100.00;101923.00;5030533;28;20412;-74
2023/05/16 03:28:47;;;;;;;19.58;3.58;;;;;;;6.44;100.00;101924.75;5005761;28;20453;-74
2023/05/16 03:31:18;;;;;;;21.50;4.15;;;;;;;6.39;100.00;101917.97;5021379;28;20026;-77
2023/05/16 03:33:51;;;;;;;18.98;3.95;;;;;;;6.38;100.00;101924.13;5030482;28;20440;-76
2023/05/16 03:36:20;;;;;;;23.83;4.10;;;;;;;6.39;100.00;101925.81;5011260;28;20024;-76
2023/05/16 03:38:49;;;;;;;21.08;4.32;;;;;;;6.35;100.00;101926.84;5024882;28;20073;-76
2023/05/16 03:41:21;;;;;;;15.57;3.95;;;;;;;6.34;100.00;101928.59;5014263;28;20466;-77
2023/05/16 03:43:58;;;;;;;21.52;4.38;;;;;;;6.29;100.00;101934.03;5010772;28;20028;-77
2023/05/16 03:46:26;;;;;;;19.00;4.20;;;;;;;6.28;100.00;101934.94;5030585;28;20025;-77
2023/05/16 03:48:52;;;;;;;19.05;4.03;;;;;;;6.26;100.00;101934.13;5014377;28;20048;-76
2023/05/16 03:51:39;;;;;;;15.25;3.55;;;;;;;6.33;100.00;101942.59;5013685;28;20117;-77
2023/05/16 03:54:14;;;;;;;18.08;3.60;;;;;;;6.25;100.00;101944.66;5027468;28;20029;-76
2023/05/16 03:57:14;;;;;;;16.35;3.80;;;;;;;6.26;100.00;101948.97;5004517;28;20053;-76
2023/05/16 03:59:45;;;;;;;22.50;4.20;;;;;;;6.15;100.00;101946.78;5013164;28;20481;-76
2023/05/16 04:02:11;;;;;;;19.73;4.70;;;;;;;6.11;100.00;101939.97;5029660;28;20108;-74
2023/05/16 04:05:24;;;;;;;20.20;4.00;;;;;;;6.22;100.00;101948.25;5028852;28;20080;-74
2023/05/16 04:11:25;;;;;;;18.65;4.13;;;;;;;6.17;100.00;101947.56;5031067;28;20040;-76
2023/05/16 04:14:34;;;;;;;18.30;4.28;;;;;;;6.17;100.00;101946.72;5025015;28;20060;-77
2023/05/16 04:17:26;;;;;;;20.05;3.95;;;;;;;6.24;100.00;101953.41;5006651;28;20035;-76
2023/05/16 04:19:54;;;;;;;18.23;3.95;;;;;;;6.27;100.00;101959.38;4995961;28;20041;-76
2023/05/16 04:23:15;;;;;;;;;;;;;;;;;;;;;
2023/05/16 04:29:14;;;;;;;20.75;4.07;;;;;;;6.25;100.00;101960.34;4926785;29;20043;-74
2023/05/16 04:32:06;;;;;;;15.45;3.67;;;;;;;6.33;100.00;101962.66;4914377;29;20036;-75
2023/05/16 04:34:54;;;;;;;16.27;3.53;;;;;;;6.34;100.00;101962.59;4934557;28;20070;-75
2023/05/16 04:37:19;;;;;;;25.95;4.57;;;;;;;6.37;100.00;101975.53;4968062;28;20022;-75
2023/05/16 04:39:45;;;;;;;29.77;4.95;;;;;;;6.35;100.00;101977.34;4984500;28;20045;-75
2023/05/16 04:42:17;;;;;;;17.90;3.85;;;;;;;6.34;100.00;101975.66;5024779;28;20018;-75
2023/05/16 04:44:52;;;;;;;16.90;3.97;;;;;;;6.43;100.00;101977.09;5013049;28;20116;-75
2023/05/16 04:47:22;;;;;;;20.85;3.60;;;;;;;6.50;100.00;101986.41;5025114;28;20036;-75
2023/05/16 04:50:18;;;;;;;;;;;;;;;;;;;;;
2023/05/16 04:52:53;;;;;;;15.90;4.03;;;;;;;6.57;100.00;101995.69;5029028;28;20033;-76
2023/05/16 04:55:30;;;;;;;18.70;3.80;;;;;;;6.64;100.00;101998.94;5012005;28;20053;-74
2023/05/16 04:58:07;;;;;;;;;;;;;;;;;;;;;
2023/05/16 05:00:33;;;;;;;15.00;3.75;;;;;;;6.76;100.00;101994.06;5028943;28;20088;-75
2023/05/16 05:03:03;;;;;;;17.88;3.78;;;;;;;6.79;100.00;102000.94;5011152;28;20535;-75
2023/05/16 05:05:29;;;;;;;22.40;4.53;;;;;;;6.81;100.00;102001.75;5010819;28;20448;-75
2023/05/16 05:07:58;;;;;;;13.15;3.40;;;;;;;6.89;100.00;102000.53;4992866;28;20029;-74
2023/05/16 05:10:40;;;;;;;18.13;4.03;;;;;;;6.95;100.00;101998.56;5010434;28;20541;-75
2023/05/16 05:13:12;;;;;;;19.45;4.28;;;;;;;6.97;100.00;101994.97;4991305;28;20044;-75
2023/05/16 05:15:37;;;;;;;19.48;4.00;;;;;;;7.03;100.00;101993.88;5008361;28;20037;-75
2023/05/16 05:18:06;;;;;;;21.85;4.05;;;;;;;7.09;100.00;102001.47;5010434;28;20025;-75
2023/05/16 05:20:31;;;;;;;14.40;3.50;;;;;;;7.18;100.00;101996.69;5018454;28;20446;-76
2023/05/16 05:22:57;;;;;;;17.30;4.03;;;;;;;7.22;100.00;102000.06;5022606;28;20024;-75
2023/05/16 05:25:23;;;;;;;17.42;3.70;;;;;;;7.29;100.00;102008.50;5029312;28;20049;-75
2023/05/16 05:27:52;;;;;;;17.38;3.65;;;;;;;7.33;100.00;102010.94;5026408;28;20385;-75
2023/05/16 05:30:20;;;;;;;24.08;4.70;;;;;;;7.41;100.00;102008.00;5026362;28;20543;-75
2023/05/16 05:32:45;;;;;;;14.15;4.00;;;;;;;7.46;99.56;102009.50;5032336;28;20482;-75
2023/05/16 05:35:14;;;;;;;14.57;3.28;;;;;;;7.52;99.22;102014.47;5024167;28;20080;-75
2023/05/16 05:37:40;;;;;;;16.50;3.78;;;;;;;7.62;99.32;102019.34;5027381;28;20032;-75
2023/05/16 05:40:06;;;;;;;17.70;4.10;;;;;;;7.68;98.60;102021.69;5011315;28;20382;-76
2023/05/16 05:42:35;;;;;;;16.60;3.72;;;;;;;7.73;98.49;102024.97;5027690;28;20100;-75
2023/05/16 05:45:00;;;;;;;16.92;4.38;;;;;;;7.81;98.54;102018.47;5026011;28;20021;-75
2023/05/16 05:47:27;;;;;;;19.73;3.92;;;;;;;7.87;99.45;102030.44;5030060;28;20022;-75
2023/05/16 05:49:52;;;;;;;18.77;3.78;;;;;;;7.92;96.63;102027.63;5029338;28;20033;-75
2023/05/16 05:52:18;;;;;;;14.50;3.80;;;;;;;8.04;97.06;102025.34;5028629;28;20394;-76
2023/05/16 05:54:43;;;;;;;19.55;4.10;;;;;;;8.09;95.31;102036.47;5029799;28;20083;-75
2023/05/16 05:57:08;;;;;;;21.38;4.50;;;;;;;8.20;95.68;102030.72;5009144;28;20053;-75
2023/05/16 05:59:35;;;;;;;17.27;3.60;;;;;;;8.22;93.18;102038.53;5024782;28;20041;-75
2023/05/16 06:02:01;;;;;;;13.85;3.78;;;;;;;8.28;92.82;102038.25;5006968;28;20056;-75
2023/05/16 06:04:33;;;;;;;18.30;3.65;;;;;;;8.34;93.56;102044.09;5029060;28;20053;-75
2023/05/16 06:06:58;;;;;;;21.63;4.15;;;;;;;8.38;90.89;102039.56;5029311;28;20026;-75
2023/05/16 06:09:23;;;;;;;15.32;3.92;;;;;;;8.45;91.43;102041.00;5029505;28;20121;-75
2023/05/16 06:11:49;;;;;;;13.18;3.60;;;;;;;8.54;92.36;102045.81;5028609;28;20041;-75
2023/05/16 06:14:15;;;;;;;15.52;3.33;;;;;;;8.56;90.94;102043.97;5029413;28;20021;-75
2023/05/16 06:16:44;;;;;;;13.27;3.40;;;;;;;8.63;90.68;102049.78;5025266;28;20025;-75
2023/05/16 06:19:11;;;;;;;16.70;3.67;;;;;;;8.70;90.23;102046.78;5007217;28;20139;-76
2023/05/16 06:21:36;;;;;;;18.77;3.92;;;;;;;8.77;90.46;102055.22;5027706;28;20032;-75
2023/05/16 06:24:02;;;;;;;16.38;3.53;;;;;;;8.83;90.77;102054.97;5028080;28;20484;-76
2023/05/16 06:26:27;;;;;;;20.27;3.85;;;;;;;8.92;91.00;102056.28;5027414;28;20037;-75
2023/05/16 06:28:52;;;;;;;14.30;3.22;;;;;;;8.95;90.04;102057.00;5027117;28;20079;-76
2023/05/16 06:31:18;;;;;;;19.77;3.30;;;;;;;9.02;90.36;102054.91;5026401;28;20060;-76
2023/05/16 06:33:43;;;;;;;11.65;3.08;;;;;;;9.07;89.18;102055.53;5021099;28;20382;-76
2023/05/16 06:36:12;;;;;;;17.58;3.33;;;;;;;9.13;88.09;102057.88;5026201;28;20064;-75
2023/05/16 06:38:38;;;;;;;13.88;3.33;;;;;;;9.17;88.51;102056.78;5029214;28;20061;-76
2023/05/16 06:41:03;;;;;;;12.07;2.97;;;;;;;9.28;89.30;102059.75;5027897;28;20790;-75
2023/05/16 06:43:28;;;;;;;17.17;3.47;;;;;;;9.35;88.08;102060.31;5029257;28;20429;-75
2023/05/16 06:46:01;;;;;;;15.77;3.08;;;;;;;9.41;86.18;102060.00;5028400;28;20156;-75
2023/05/16 06:48:26;;;;;;;;;;;;;;;9.49;88.81;102063.09;5029108;28;20541;-75
2023/05/16 06:50:52;;;;;;;11.90;3.25;;;;;;;9.53;85.35;102058.53;5022744;28;19980;-75
2023/05/16 06:53:19;;;;;;;13.43;2.75;;;;;;;9.62;85.80;102066.81;5031677;28;20078;-75
2023/05/16 06:55:49;;;;;;;13.43;2.60;;;;;;;9.76;84.90;102055.59;5032775;28;20119;-75
2023/05/16 06:58:14;;;;;;;12.50;2.67;;;;;;;9.91;83.05;102054.81;5032397;28;20025;-75
2023/05/16 07:00:44;;;;;;;12.82;3.05;;;;;;;10.17;83.10;102060.50;5032230;28;20017;-75
2023/05/16 07:03:10;;;;;;;12.18;2.97;;;;;;;10.37;81.06;102062.94;5014058;28;20018;-75
2023/05/16 07:05:35;;;;;;;11.48;2.60;;;;;;;10.52;79.96;102051.59;5030432;28;20039;-75
2023/05/16 07:08:01;;;;;;;12.98;2.83;;;;;;;10.65;78.63;102057.03;5027453;28;20033;-76
2023/05/16 07:10:30;;;;;;;10.52;2.58;;;;;;;10.95;77.50;102054.50;5014493;28;20383;-76
2023/05/16 07:12:55;;;;;;;9.52;2.40;;;;;;;11.30;73.96;102055.13;5031574;28;20033;-76
2023/05/16 07:15:20;;;;;;;13.98;2.33;;;;;;;11.59;71.83;102050.78;5028094;28;20362;-76
2023/05/16 07:17:46;;;;;;;14.07;2.42;;;;;;;11.67;71.22;102064.38;5012537;28;20029;-76
2023/05/16 07:20:13;;;;;;;9.98;2.42;;;;;;;11.70;71.74;102063.34;5012140;28;20112;-76
2023/05/16 07:22:43;;;;;;;11.68;2.28;;;;;;;11.73;70.37;102069.28;5019733;28;20432;-76
2023/05/16 07:25:11;;;;;;;8.07;2.03;;;;;;;11.95;69.50;102066.22;5023184;28;20022;-75
2023/05/16 07:27:40;;;;;;;10.13;2.20;;;;;;;12.00;67.03;102065.94;5030659;28;20120;-77
2023/05/16 07:30:08;;;;;;;10.25;2.55;;;;;;;11.89;66.09;102069.25;5029381;28;20083;-75
2023/05/16 07:32:33;;;;;;;13.43;2.42;;;;;;;11.79;66.12;102078.66;5029148;28;20033;-75
2023/05/16 07:35:01;;;;;;;11.20;2.20;;;;;;;11.79;68.88;102074.22;5031936;28;20047;-75
2023/05/16 07:37:26;;;;;;;8.65;1.77;;;;;;;12.18;67.01;102081.53;5030762;28;20477;-75
2023/05/16 07:39:53;;;;;;;7.75;2.10;;;;;;;12.28;65.79;102078.31;5030804;28;20033;-75
2023/05/16 07:42:18;;;;;;;9.10;2.00;;;;;;;12.46;63.77;102070.13;5031411;28;20080;-76
2023/05/16 07:44:44;;;;;;;8.82;2.20;;;;;;;12.63;64.57;102073.50;5029985;28;20034;-75
2023/05/16 07:47:13;;;;;;;7.50;2.42;;;;;;;12.96;65.46;102067.88;5030169;28;20053;-74
2023/05/16 07:49:39;;;;;;;7.80;1.88;;;;;;;13.26;62.86;102075.63;5029400;28;20112;-75
2023/05/16 07:52:04;;;;;;;8.45;2.10;;;;;;;13.11;59.56;102073.00;5029957;28;20039;-75
2023/05/16 07:54:32;;;;;;;7.72;1.92;;;;;;;13.12;60.06;102074.69;5031146;28;20446;-77
2023/05/16 07:57:00;;;;;;;5.13;1.63;;;;;;;13.27;61.49;102078.19;5013344;28;20062;-76
2023/05/16 07:59:25;;;;;;;7.07;1.65;;;;;;;13.19;60.80;102075.16;4994339;28;20112;-76
2023/05/16 08:01:51;;;;;;;10.07;1.90;;;;;;;13.15;61.21;102079.78;5012038;28;20390;-76
2023/05/16 08:04:16;;;;;;;11.48;1.85;;;;;;;13.43;63.03;102078.00;5011133;28;20041;-76
2023/05/16 08:06:42;;;;;;;10.00;2.67;;;;;;;13.35;62.64;102081.16;4994506;28;20061;-76
2023/05/16 08:09:08;;;;;;;7.32;1.75;;;;;;;13.12;60.87;102089.69;5011441;28;20022;-76
2023/05/16 08:11:34;;;;;;;7.90;1.67;;;;;;;12.84;61.12;102086.22;5011602;28;20021;-76
2023/05/16 08:14:02;;;;;;;8.02;1.92;;;;;;;13.07;60.44;102071.50;5011815;28;20032;-77
2023/05/16 08:16:27;;;;;;;7.68;1.67;;;;;;;13.53;59.37;102079.09;5012201;28;20386;-76
2023/05/16 08:18:56;;;;;;;6.15;1.83;;;;;;;13.87;57.88;102079.47;4994866;28;20034;-76
2023/05/16 08:21:21;;;;;;;7.95;1.95;;;;;;;14.20;57.68;102094.84;4992749;28;20030;-77
2023/05/16 08:23:51;;;;;;;6.97;2.40;;;;;;;14.43;55.58;102090.63;4993565;28;20093;-76
2023/05/16 08:26:17;;;;;;;5.13;1.63;;;;;;;14.50;53.01;102087.44;5006011;28;20076;-76
2023/05/16 08:28:42;;;;;;;6.82;1.50;;;;;;;14.71;53.79;102085.03;5011639;28;20066;-76
2023/05/16 08:31:07;;;;;;;7.63;1.58;;;;;;;14.94;54.11;102073.66;5010390;28;20018;-76
2023/05/16 08:33:33;;;;;;;6.78;2.38;;;;;;;15.09;53.66;102078.78;5010507;28;20542;-77
2023/05/16 08:35:59;;;;;;;6.78;2.05;;;;;;;15.14;53.03;102076.63;5010737;28;20037;-77
2023/05/16 08:38:25;;;;;;;8.68;2.10;;;;;;;14.87;53.53;102072.41;5009401;28;20021;-79
2023/05/16 08:40:50;;;;;;;5.95;1.35;;;;;;;14.45;54.40;102083.44;5009994;28;20502;-77
2023/05/16 08:43:16;;;;;;;7.18;1.70;;;;;;;14.27;55.57;102083.72;5010228;28;20101;-77
2023/05/16 08:45:41;;;;;;;6.68;1.60;;;;;;;14.57;54.74;102075.44;5011088;28;20037;-76
2023/05/16 08:48:09;;;;;;;7.20;1.95;;;;;;;14.84;55.18;102074.44;4980643;28;20053;-77
2023/05/16 08:50:35;;;;;;;8.00;1.70;;;;;;;15.30;54.79;102066.59;5010193;28;20076;-76
2023/05/16 08:53:10;;;;;;;7.53;1.67;;;;;;;15.65;52.99;102061.34;5000260;28;20380;-77
2023/05/16 08:55:36;;;;;;;10.85;1.85;;;;;;;16.00;52.48;102061.25;4998084;28;20168;-74
2023/05/16 08:58:03;;;;;;;8.70;1.90;;;;;;;16.19;51.32;102060.69;5010525;28;20382;-77
2023/05/16 09:00:30;;;;;;;10.00;1.80;;;;;;;16.59;52.05;102058.38;5010548;28;20033;-77
2023/05/16 09:03:00;;;;;;;7.30;1.88;;;;;;;15.90;51.33;102069.09;4993390;28;20494;-77
2023/05/16 09:05:26;;;;;;;9.43;2.03;;;;;;;15.65;52.72;102062.19;5020863;28;20025;-77
2023/05/16 09:07:52;;;;;;;8.82;2.22;;;;;;;15.78;52.17;102072.69;5029247;28;20052;-78
2023/05/16 09:10:18;;;;;;;6.40;1.67;;;;;;;15.57;52.39;102069.81;5030082;28;20473;-77
2023/05/16 09:12:43;;;;;;;6.10;1.60;;;;;;;16.09;52.83;102067.69;5024891;28;20046;-77
2023/05/16 09:15:10;;;;;;;4.70;1.60;;;;;;;16.30;50.14;102064.19;5022392;28;20029;-77
2023/05/16 09:17:37;;;;;;;6.85;1.67;;;;;;;16.84;50.05;102065.28;5030233;28;20021;-76
2023/05/16 09:20:11;;;;;;;5.55;1.75;;;;;;;17.35;49.89;102068.13;5009944;28;20032;-76
2023/05/16 09:22:37;;;;;;;8.30;1.77;;;;;;;17.65;47.31;102069.22;5009805;28;20101;-76
2023/05/16 09:25:03;;;;;;;5.95;1.40;;;;;;;17.60;46.33;102066.06;5010386;28;20025;-76
2023/05/16 09:27:30;;;;;;;6.32;1.48;;;;;;;17.20;44.92;102064.91;5028758;28;20025;-76
2023/05/16 09:29:58;;;;;;;5.90;1.55;;;;;;;16.67;44.85;102069.28;5028901;28;20029;-76
2023/05/16 09:32:24;;;;;;;9.13;2.35;;;;;;;16.68;46.97;102065.66;5010945;28;20025;-76
2023/05/16 09:34:52;;;;;;;6.63;2.35;;;;;;;16.57;46.14;102062.97;5009956;28;20034;-76
2023/05/16 09:37:18;;;;;;;6.70;1.48;;;;;;;16.74;46.54;102066.97;5008922;28;20061;-76
2023/05/16 09:39:52;;;;;;;6.00;1.63;;;;;;;17.01;47.77;102063.91;5009002;28;20026;-76
2023/05/16 09:42:18;;;;;;;5.93;1.60;;;;;;;16.84;46.95;102058.16;5016214;28;20026;-76
2023/05/16 09:44:53;;;;;;;7.35;1.55;;;;;;;16.55;49.56;102071.06;5029748;28;20228;-76
2023/05/16 09:47:19;;;;;;;5.43;1.33;;;;;;;15.92;46.79;102066.31;5029830;28;20071;-76
2023/05/16 09:49:45;;;;;;;5.03;1.38;;;;;;;15.49;48.93;102072.22;5011401;28;20091;-76
2023/05/16 09:52:13;;;;;;;7.20;1.48;;;;;;;15.11;50.04;102071.56;5027753;28;20029;-76
2023/05/16 09:54:39;;;;;;;5.32;1.50;;;;;;;14.81;51.00;102075.50;5029897;28;20029;-76
2023/05/16 09:57:04;;;;;;;8.45;1.50;;;;;;;14.65;53.80;102074.91;5028092;28;20119;-76
2023/05/16 09:59:34;;;;;;;7.45;1.60;;;;;;;15.20;51.85;102070.88;5028594;28;20502;-76
2023/05/16 10:02:00;;;;;;;5.90;1.40;;;;;;;17.31;47.10;102061.38;5029445;28;20433;-76
2023/05/16 10:04:25;;;;;;;9.15;2.13;;;;;;;18.86;43.90;102056.91;5028909;28;20109;-76
2023/05/16 10:06:56;;;;;;;6.03;1.40;;;;;;;18.61;42.71;102053.72;5010641;28;20033;-76
2023/05/16 10:09:23;;;;;;;8.63;1.85;;;;;;;17.34;42.20;102062.94;5029681;28;20048;-76
2023/05/16 10:11:51;;;;;;;7.75;1.75;;;;;;;16.58;44.24;102072.66;4991527;28;20367;-76
2023/05/16 10:14:18;;;;;;;7.03;1.73;;;;;;;16.47;44.60;102064.69;5008689;28;20414;-76
2023/05/16 10:16:47;;;;;;;3.90;1.20;;;;;;;16.55;44.17;102065.75;5029594;28;20457;-76
2023/05/16 10:19:13;;;;;;;4.93;1.38;;;;;;;16.69;44.28;102054.06;5028466;28;20091;-76
2023/05/16 10:21:41;;;;;;;5.53;1.52;;;;;;;17.01;42.83;102053.25;5029831;28;20029;-75
2023/05/16 10:24:11;;;;;;;4.45;1.15;;;;;;;16.86;43.61;102056.22;5021678;28;20017;-76
2023/05/16 10:26:36;;;;;;;4.57;1.42;;;;;;;17.04;44.82;102064.47;5024821;28;20025;-75
2023/05/16 10:29:02;;;;;;;10.13;2.13;;;;;;;16.70;44.58;102063.72;5014456;28;20112;-76
2023/05/16 10:31:32;;;;;;;5.57;1.38;;;;;;;16.13;44.82;102066.50;5032014;28;20083;-76
2023/05/16 10:34:01;;;;;;;5.15;1.40;;;;;;;15.62;46.05;102062.41;5031598;28;20473;-76
2023/05/16 10:36:27;;;;;;;9.15;1.60;;;;;;;15.26;47.39;102070.44;5014925;28;20022;-76
2023/05/16 10:38:54;;;;;;;5.68;1.80;;;;;;;15.26;46.46;102059.84;5031039;28;20061;-76
2023/05/16 10:41:20;;;;;;;4.80;1.35;;;;;;;15.76;46.74;102053.41;5031558;28;20984;-76
2023/05/16 10:43:55;;;;;;;6.47;1.50;;;;;;;15.96;47.18;102057.16;5012924;28;20017;-76
2023/05/16 10:46:23;;;;;;;7.85;1.52;;;;;;;16.18;45.36;102059.84;5018877;28;20085;-76
2023/05/16 10:48:51;;;;;;;4.68;1.13;;;;;;;16.54;44.62;102057.91;5031702;28;20025;-76
2023/05/16 10:51:22;;;;;;;8.48;1.58;;;;;;;16.47;44.12;102059.38;5032726;28;20048;-76
2023/05/16 10:53:54;;;;;;;5.75;1.45;;;;;;;16.57;45.23;102055.00;5031315;28;20494;-76
2023/05/16 10:56:25;;;;;;;3.95;1.20;;;;;;;16.76;46.80;102055.25;5032247;28;20536;-76
2023/05/16 10:58:56;;;;;;;6.85;1.42;;;;;;;17.12;47.04;102056.72;5026058;28;20033;-76
2023/05/16 11:01:31;;;;;;;4.45;1.50;;;;;;;17.51;46.01;102062.34;5030740;28;20108;-76
2023/05/16 11:04:02;;;;;;;7.10;1.67;;;;;;;17.44;44.10;102063.84;5028562;28;20030;-77
2023/05/16 11:06:32;;;;;;;9.13;1.80;;;;;;;17.00;43.90;102065.72;5031182;28;20071;-76
2023/05/16 11:09:10;;;;;;;9.82;2.00;;;;;;;16.44;45.98;102064.94;5033049;28;20481;-76
2023/05/16 11:11:45;;;;;;;8.00;1.45;;;;;;;16.19;46.95;102071.31;5032107;28;20026;-77
2023/05/16 11:14:18;;;;;;;5.68;1.70;;;;;;;16.53;47.81;102064.19;5028242;28;20021;-76
2023/05/16 11:16:49;;;;;;;5.50;1.50;;;;;;;17.07;44.97;102060.72;5027109;28;20508;-76
2023/05/16 11:19:28;;;;;;;5.60;1.77;;;;;;;17.44;45.29;102048.72;5032718;28;20033;-76
2023/05/16 11:22:18;;;;;;;5.63;1.55;;;;;;;17.82;45.06;102058.84;5013477;28;20374;-76
2023/05/16 11:25:03;;;;;;;8.27;1.67;;;;;;;17.59;43.09;102054.56;5031628;28;20485;-76
2023/05/16 11:27:32;;;;;;;9.07;1.70;;;;;;;17.28;44.46;102066.97;5007642;28;20120;-77
2023/05/16 11:30:04;;;;;;;7.38;1.98;;;;;;;17.21;46.42;102066.63;5029573;28;20025;-76
2023/05/16 11:32:32;;;;;;;8.15;1.77;;;;;;;17.52;45.03;102070.22;5019450;28;20030;-76
2023/05/16 11:34:58;;;;;;;7.68;1.60;;;;;;;17.40;44.22;102065.09;5026812;28;20033;-77
2023/05/16 11:37:23;;;;;;;11.18;1.42;;;;;;;17.28;45.39;102061.63;5031777;28;20072;-76
2023/05/16 11:39:50;;;;;;;8.73;2.10;;;;;;;16.92;45.57;102069.00;5010798;28;20088;-77
2023/05/16 11:42:16;;;;;;;12.15;2.03;;;;;;;16.80;45.20;102067.31;5003054;28;20017;-77
2023/05/16 11:44:42;;;;;;;8.70;1.90;;;;;;;17.02;45.59;102060.25;5028810;28;20042;-76
2023/05/16 11:47:08;;;;;;;9.02;1.55;;;;;;;17.08;44.58;102065.91;5027956;28;20436;-77